This is the latest recevied weather packets stored in our database for station/object KE7TOP-15. If no packets are shown the sender has not sent any weather packets the latest 10 day(s).
| Time | Temp. | Humidity | Pressure | Rain* | Wind** | Luminosity | Snow |
|---|---|---|---|---|---|---|---|
| 1777737619 | 16.67° C | 40% | 1017.3 hPa | 0 mm | - | 443 W/m² | - |
| 1777731616 | 7.22° C | 70% | 1017.1 hPa | 0 mm | - | 86 W/m² | - |
| 1777728622 | 5.56° C | 70% | 1016.5 hPa | 0 mm | - | 21 W/m² | - |
| 1777727461 | 5.56° C | 69% | 1016.5 hPa | 0 mm | - | 4 W/m² | - |
| 1777725617 | 5.56° C | 71% | 1016.5 hPa | 0 mm | - | 0 W/m² | - |
| 1777724423 | 5° C | 70% | 1016.5 hPa | 0 mm | - | 0 W/m² | - |
| 1777723821 | 5° C | 70% | 1016.4 hPa | 0 mm | - | 0 W/m² | - |
| 1777723220 | 5° C | 68% | 1016.6 hPa | 0 mm | - | 0 W/m² | - |
| 1777717519 | 6.67° C | 63% | 1016.5 hPa | 0 mm | - | 0 W/m² | - |
| 1777716938 | 6.67° C | 63% | 1016.5 hPa | 0 mm | - | 0 W/m² | - |
| 1777715716 | 6.67° C | 63% | 1016.5 hPa | 0 mm | - | 0 W/m² | - |
| 1777710317 | 8.33° C | 52% | 1017.2 hPa | 0 mm | - | 0 W/m² | - |
| 1777708524 | 8.89° C | 47% | 1017.6 hPa | 0 mm | - | 0 W/m² | - |
| 1777707362 | 9.44° C | 47% | 1017.7 hPa | 0 mm | - | 0 W/m² | - |
| 1777695320 | 12.78° C | 23% | 1017.3 hPa | 0 mm | - | 0 W/m² | - |
| 1777690520 | 16.67° C | 18% | 1016.3 hPa | 0 mm | - | 2 W/m² | - |
| 1777681822 | 22.22° C | 13% | 1016.7 hPa | 0 mm | - | 213 W/m² | - |
| 1777680060 | 23.33° C | 12% | 1016.8 hPa | 0 mm | - | 290 W/m² | - |
| 1777673419 | 22.78° C | 13% | 1018.3 hPa | 0 mm | - | 632 W/m² | - |
| 1777671617 | 22.22° C | 14% | 1018.8 hPa | 0 mm | - | 711 W/m² | - |
| 1777665619 | 21.11° C | 16% | 1019.6 hPa | 0 mm | - | 796 W/m² | - |
| 1777664417 | 20.56° C | 17% | 1019.9 hPa | 0 mm | - | 782 W/m² | - |
| 1777663215 | 20° C | 18% | 1020 hPa | 0 mm | - | 790 W/m² | - |
| 1777657815 | 17.78° C | 20% | 1020.8 hPa | 0 mm | - | 660 W/m² | - |
| 1777653617 | 16.67° C | 22% | 1020.9 hPa | 0 mm | - | 493 W/m² | - |
* Rain latest hour (hover to see other rain measurements)
** Current wind speed in m/s (hover to see current wind gust speed)